sensor_id;sensor_type;location;lat;lon;timestamp;P1;durP1;ratioP1;P2;durP2;ratioP2
27612;SDS011;15036;48.094;-1.690;2023-07-20T00:02:11;8.13;;;3.73;;
27612;SDS011;15036;48.094;-1.690;2023-07-20T00:04:37;8.93;;;3.80;;
27612;SDS011;15036;48.094;-1.690;2023-07-20T00:07:03;7.75;;;3.67;;
27612;SDS011;15036;48.094;-1.690;2023-07-20T00:09:28;8.43;;;3.50;;
27612;SDS011;15036;48.094;-1.690;2023-07-20T00:11:54;8.23;;;3.70;;
27612;SDS011;15036;48.094;-1.690;2023-07-20T00:14:20;9.23;;;3.70;;
27612;SDS011;15036;48.094;-1.690;2023-07-20T00:16:45;10.37;;;3.80;;
27612;SDS011;15036;48.094;-1.690;2023-07-20T00:19:12;9.95;;;3.90;;
27612;SDS011;15036;48.094;-1.690;2023-07-20T00:21:37;9.18;;;3.78;;
27612;SDS011;15036;48.094;-1.690;2023-07-20T00:24:05;9.32;;;4.07;;
27612;SDS011;15036;48.094;-1.690;2023-07-20T00:26:30;7.72;;;3.30;;
27612;SDS011;15036;48.094;-1.690;2023-07-20T00:28:56;8.45;;;3.65;;
27612;SDS011;15036;48.094;-1.690;2023-07-20T00:31:21;8.00;;;3.60;;
27612;SDS011;15036;48.094;-1.690;2023-07-20T00:33:47;10.40;;;3.50;;
27612;SDS011;15036;48.094;-1.690;2023-07-20T00:36:12;7.22;;;3.35;;
27612;SDS011;15036;48.094;-1.690;2023-07-20T00:38:37;9.80;;;3.93;;
27612;SDS011;15036;48.094;-1.690;2023-07-20T00:41:03;9.33;;;3.57;;
27612;SDS011;15036;48.094;-1.690;2023-07-20T00:43:28;7.43;;;3.50;;
27612;SDS011;15036;48.094;-1.690;2023-07-20T00:45:54;9.68;;;3.63;;
27612;SDS011;15036;48.094;-1.690;2023-07-20T00:48:20;8.30;;;3.70;;
27612;SDS011;15036;48.094;-1.690;2023-07-20T00:50:46;7.50;;;3.53;;
27612;SDS011;15036;48.094;-1.690;2023-07-20T00:53:13;8.85;;;3.58;;
27612;SDS011;15036;48.094;-1.690;2023-07-20T00:55:39;7.60;;;3.20;;
27612;SDS011;15036;48.094;-1.690;2023-07-20T00:58:04;8.13;;;3.93;;
27612;SDS011;15036;48.094;-1.690;2023-07-20T01:00:30;8.13;;;3.63;;
27612;SDS011;15036;48.094;-1.690;2023-07-20T01:02:55;7.68;;;3.83;;
27612;SDS011;15036;48.094;-1.690;2023-07-20T01:05:21;8.30;;;3.60;;
27612;SDS011;15036;48.094;-1.690;2023-07-20T01:08:01;10.38;;;3.92;;
27612;SDS011;15036;48.094;-1.690;2023-07-20T01:10:39;9.95;;;4.00;;
27612;SDS011;15036;48.094;-1.690;2023-07-20T01:13:08;6.30;;;3.70;;
27612;SDS011;15036;48.094;-1.690;2023-07-20T01:15:34;12.50;;;4.10;;
27612;SDS011;15036;48.094;-1.690;2023-07-20T01:18:00;6.73;;;3.80;;
27612;SDS011;15036;48.094;-1.690;2023-07-20T01:20:26;7.35;;;4.30;;
27612;SDS011;15036;48.094;-1.690;2023-07-20T01:33:57;8.18;;;4.60;;
27612;SDS011;15036;48.094;-1.690;2023-07-20T01:36:26;8.88;;;4.82;;
27612;SDS011;15036;48.094;-1.690;2023-07-20T01:38:54;9.02;;;4.45;;
27612;SDS011;15036;48.094;-1.690;2023-07-20T01:41:21;8.15;;;4.45;;
27612;SDS011;15036;48.094;-1.690;2023-07-20T01:43:46;7.80;;;4.40;;
27612;SDS011;15036;48.094;-1.690;2023-07-20T01:46:11;9.20;;;4.40;;
27612;SDS011;15036;48.094;-1.690;2023-07-20T01:48:37;10.17;;;4.80;;
27612;SDS011;15036;48.094;-1.690;2023-07-20T01:51:02;11.87;;;4.77;;
27612;SDS011;15036;48.094;-1.690;2023-07-20T01:53:28;7.90;;;4.30;;
27612;SDS011;15036;48.094;-1.690;2023-07-20T01:55:53;10.87;;;4.80;;
27612;SDS011;15036;48.094;-1.690;2023-07-20T01:58:19;8.35;;;4.47;;
27612;SDS011;15036;48.094;-1.690;2023-07-20T02:00:45;8.30;;;4.10;;
27612;SDS011;15036;48.094;-1.690;2023-07-20T02:03:10;11.57;;;4.95;;
27612;SDS011;15036;48.094;-1.690;2023-07-20T02:05:37;8.95;;;4.68;;
27612;SDS011;15036;48.094;-1.690;2023-07-20T02:08:03;9.32;;;4.88;;
27612;SDS011;15036;48.094;-1.690;2023-07-20T02:10:28;11.93;;;5.10;;
27612;SDS011;15036;48.094;-1.690;2023-07-20T02:12:54;10.13;;;4.95;;
27612;SDS011;15036;48.094;-1.690;2023-07-20T02:15:19;8.57;;;5.28;;
27612;SDS011;15036;48.094;-1.690;2023-07-20T02:17:46;9.80;;;5.50;;
27612;SDS011;15036;48.094;-1.690;2023-07-20T02:20:11;10.13;;;5.67;;
27612;SDS011;15036;48.094;-1.690;2023-07-20T02:22:37;10.47;;;5.60;;
27612;SDS011;15036;48.094;-1.690;2023-07-20T02:25:06;9.27;;;5.00;;
27612;SDS011;15036;48.094;-1.690;2023-07-20T02:27:35;9.93;;;5.05;;
27612;SDS011;15036;48.094;-1.690;2023-07-20T02:30:02;9.27;;;5.80;;
27612;SDS011;15036;48.094;-1.690;2023-07-20T02:32:28;8.68;;;5.53;;
27612;SDS011;15036;48.094;-1.690;2023-07-20T02:34:53;9.93;;;5.70;;
27612;SDS011;15036;48.094;-1.690;2023-07-20T02:37:19;11.90;;;6.55;;
27612;SDS011;15036;48.094;-1.690;2023-07-20T02:39:44;10.90;;;6.17;;
27612;SDS011;15036;48.094;-1.690;2023-07-20T02:42:10;14.17;;;6.90;;
27612;SDS011;15036;48.094;-1.690;2023-07-20T02:44:35;10.37;;;6.40;;
27612;SDS011;15036;48.094;-1.690;2023-07-20T02:47:00;14.37;;;7.10;;
27612;SDS011;15036;48.094;-1.690;2023-07-20T02:49:26;14.33;;;7.40;;
27612;SDS011;15036;48.094;-1.690;2023-07-20T02:51:52;12.90;;;7.40;;
27612;SDS011;15036;48.094;-1.690;2023-07-20T02:54:17;13.53;;;7.07;;
27612;SDS011;15036;48.094;-1.690;2023-07-20T02:56:42;13.63;;;7.20;;
27612;SDS011;15036;48.094;-1.690;2023-07-20T02:59:08;12.05;;;6.90;;
27612;SDS011;15036;48.094;-1.690;2023-07-20T03:01:33;12.10;;;7.20;;
27612;SDS011;15036;48.094;-1.690;2023-07-20T03:03:59;13.37;;;7.77;;
27612;SDS011;15036;48.094;-1.690;2023-07-20T03:06:24;11.00;;;6.33;;
27612;SDS011;15036;48.094;-1.690;2023-07-20T03:08:50;12.80;;;7.27;;
27612;SDS011;15036;48.094;-1.690;2023-07-20T03:11:17;12.32;;;7.47;;
27612;SDS011;15036;48.094;-1.690;2023-07-20T03:13:44;11.27;;;7.03;;
27612;SDS011;15036;48.094;-1.690;2023-07-20T03:16:10;11.30;;;7.07;;
27612;SDS011;15036;48.094;-1.690;2023-07-20T03:18:37;12.05;;;6.78;;
27612;SDS011;15036;48.094;-1.690;2023-07-20T03:21:05;10.10;;;6.60;;
27612;SDS011;15036;48.094;-1.690;2023-07-20T03:23:31;14.30;;;6.90;;
27612;SDS011;15036;48.094;-1.690;2023-07-20T03:25:57;11.63;;;7.15;;
27612;SDS011;15036;48.094;-1.690;2023-07-20T03:28:22;11.70;;;6.97;;
27612;SDS011;15036;48.094;-1.690;2023-07-20T03:30:54;11.93;;;7.40;;
27612;SDS011;15036;48.094;-1.690;2023-07-20T03:33:24;13.38;;;7.80;;
27612;SDS011;15036;48.094;-1.690;2023-07-20T03:35:51;16.50;;;8.43;;
27612;SDS011;15036;48.094;-1.690;2023-07-20T03:38:18;12.40;;;7.23;;
27612;SDS011;15036;48.094;-1.690;2023-07-20T03:40:50;13.80;;;8.10;;
27612;SDS011;15036;48.094;-1.690;2023-07-20T03:43:16;11.30;;;7.60;;
27612;SDS011;15036;48.094;-1.690;2023-07-20T03:45:41;11.90;;;8.10;;
27612;SDS011;15036;48.094;-1.690;2023-07-20T03:48:07;12.33;;;7.97;;
27612;SDS011;15036;48.094;-1.690;2023-07-20T03:50:32;10.10;;;7.20;;
27612;SDS011;15036;48.094;-1.690;2023-07-20T03:52:58;9.82;;;7.28;;
27612;SDS011;15036;48.094;-1.690;2023-07-20T03:55:23;13.07;;;7.70;;
27612;SDS011;15036;48.094;-1.690;2023-07-20T03:57:50;10.57;;;7.13;;
27612;SDS011;15036;48.094;-1.690;2023-07-20T04:00:16;10.80;;;7.07;;
27612;SDS011;15036;48.094;-1.690;2023-07-20T04:02:42;11.57;;;7.80;;
27612;SDS011;15036;48.094;-1.690;2023-07-20T04:05:08;10.38;;;7.30;;
27612;SDS011;15036;48.094;-1.690;2023-07-20T04:07:34;10.50;;;7.20;;
27612;SDS011;15036;48.094;-1.690;2023-07-20T04:09:59;9.40;;;7.00;;
27612;SDS011;15036;48.094;-1.690;2023-07-20T04:12:24;10.67;;;7.00;;
27612;SDS011;15036;48.094;-1.690;2023-07-20T04:14:50;12.15;;;8.30;;
27612;SDS011;15036;48.094;-1.690;2023-07-20T04:17:15;9.77;;;7.23;;
27612;SDS011;15036;48.094;-1.690;2023-07-20T04:19:42;12.80;;;8.43;;
27612;SDS011;15036;48.094;-1.690;2023-07-20T04:22:07;10.70;;;7.83;;
27612;SDS011;15036;48.094;-1.690;2023-07-20T04:24:33;10.27;;;7.72;;
27612;SDS011;15036;48.094;-1.690;2023-07-20T04:26:58;12.30;;;7.97;;
27612;SDS011;15036;48.094;-1.690;2023-07-20T04:29:23;12.00;;;7.73;;
27612;SDS011;15036;48.094;-1.690;2023-07-20T04:31:50;10.75;;;7.93;;
27612;SDS011;15036;48.094;-1.690;2023-07-20T04:34:16;12.35;;;8.32;;
27612;SDS011;15036;48.094;-1.690;2023-07-20T04:36:41;10.82;;;7.28;;
27612;SDS011;15036;48.094;-1.690;2023-07-20T04:39:07;10.23;;;7.30;;
27612;SDS011;15036;48.094;-1.690;2023-07-20T04:41:33;9.32;;;7.03;;
27612;SDS011;15036;48.094;-1.690;2023-07-20T04:43:59;9.07;;;6.80;;
27612;SDS011;15036;48.094;-1.690;2023-07-20T04:46:24;11.67;;;7.53;;
27612;SDS011;15036;48.094;-1.690;2023-07-20T04:48:49;10.50;;;7.17;;
27612;SDS011;15036;48.094;-1.690;2023-07-20T04:51:15;9.83;;;7.90;;
27612;SDS011;15036;48.094;-1.690;2023-07-20T04:53:42;11.40;;;8.23;;
27612;SDS011;15036;48.094;-1.690;2023-07-20T04:56:07;12.27;;;8.47;;
27612;SDS011;15036;48.094;-1.690;2023-07-20T04:58:33;11.23;;;8.30;;
27612;SDS011;15036;48.094;-1.690;2023-07-20T05:00:58;12.20;;;7.90;;
27612;SDS011;15036;48.094;-1.690;2023-07-20T05:03:24;12.17;;;8.73;;
27612;SDS011;15036;48.094;-1.690;2023-07-20T05:05:49;12.60;;;8.55;;
27612;SDS011;15036;48.094;-1.690;2023-07-20T05:08:14;11.93;;;8.47;;
27612;SDS011;15036;48.094;-1.690;2023-07-20T05:10:41;12.82;;;8.90;;
27612;SDS011;15036;48.094;-1.690;2023-07-20T05:13:06;13.60;;;8.67;;
27612;SDS011;15036;48.094;-1.690;2023-07-20T05:15:35;13.13;;;9.20;;
27612;SDS011;15036;48.094;-1.690;2023-07-20T05:18:00;11.90;;;8.30;;
27612;SDS011;15036;48.094;-1.690;2023-07-20T05:20:26;14.07;;;8.70;;
27612;SDS011;15036;48.094;-1.690;2023-07-20T05:22:52;12.53;;;8.50;;
27612;SDS011;15036;48.094;-1.690;2023-07-20T05:25:18;10.18;;;8.25;;
27612;SDS011;15036;48.094;-1.690;2023-07-20T05:27:44;10.88;;;8.52;;
27612;SDS011;15036;48.094;-1.690;2023-07-20T05:30:10;14.20;;;8.63;;
27612;SDS011;15036;48.094;-1.690;2023-07-20T05:32:36;12.83;;;8.73;;
27612;SDS011;15036;48.094;-1.690;2023-07-20T05:35:03;12.40;;;8.67;;
27612;SDS011;15036;48.094;-1.690;2023-07-20T05:37:28;12.57;;;9.25;;
27612;SDS011;15036;48.094;-1.690;2023-07-20T05:39:54;13.90;;;8.60;;
27612;SDS011;15036;48.094;-1.690;2023-07-20T05:42:19;13.33;;;8.70;;
27612;SDS011;15036;48.094;-1.690;2023-07-20T05:44:44;10.97;;;7.87;;
27612;SDS011;15036;48.094;-1.690;2023-07-20T05:47:10;12.83;;;8.40;;
27612;SDS011;15036;48.094;-1.690;2023-07-20T05:49:35;12.05;;;8.38;;
27612;SDS011;15036;48.094;-1.690;2023-07-20T05:52:01;11.30;;;8.18;;
27612;SDS011;15036;48.094;-1.690;2023-07-20T05:54:26;12.10;;;8.50;;
27612;SDS011;15036;48.094;-1.690;2023-07-20T05:56:52;11.73;;;8.07;;
27612;SDS011;15036;48.094;-1.690;2023-07-20T05:59:18;13.02;;;8.35;;
27612;SDS011;15036;48.094;-1.690;2023-07-20T06:01:44;10.07;;;7.40;;
27612;SDS011;15036;48.094;-1.690;2023-07-20T06:04:10;10.93;;;7.60;;
27612;SDS011;15036;48.094;-1.690;2023-07-20T06:06:35;13.33;;;7.43;;
27612;SDS011;15036;48.094;-1.690;2023-07-20T06:09:01;11.17;;;7.80;;
27612;SDS011;15036;48.094;-1.690;2023-07-20T06:11:32;12.73;;;8.10;;
27612;SDS011;15036;48.094;-1.690;2023-07-20T06:13:58;13.10;;;7.40;;
27612;SDS011;15036;48.094;-1.690;2023-07-20T06:16:23;10.23;;;6.47;;
27612;SDS011;15036;48.094;-1.690;2023-07-20T06:18:49;12.13;;;7.10;;
27612;SDS011;15036;48.094;-1.690;2023-07-20T06:21:14;9.68;;;7.07;;
27612;SDS011;15036;48.094;-1.690;2023-07-20T06:23:40;9.10;;;6.38;;
27612;SDS011;15036;48.094;-1.690;2023-07-20T06:26:06;8.57;;;6.63;;
27612;SDS011;15036;48.094;-1.690;2023-07-20T06:28:32;10.63;;;6.50;;
27612;SDS011;15036;48.094;-1.690;2023-07-20T06:31:01;10.37;;;6.60;;
27612;SDS011;15036;48.094;-1.690;2023-07-20T06:33:27;9.38;;;5.97;;
27612;SDS011;15036;48.094;-1.690;2023-07-20T06:35:52;10.55;;;6.47;;
27612;SDS011;15036;48.094;-1.690;2023-07-20T06:38:18;10.80;;;5.90;;
27612;SDS011;15036;48.094;-1.690;2023-07-20T06:40:45;9.57;;;6.20;;
27612;SDS011;15036;48.094;-1.690;2023-07-20T06:43:11;10.67;;;6.43;;
27612;SDS011;15036;48.094;-1.690;2023-07-20T06:45:37;11.53;;;6.43;;
27612;SDS011;15036;48.094;-1.690;2023-07-20T06:48:02;10.57;;;6.03;;
27612;SDS011;15036;48.094;-1.690;2023-07-20T06:50:28;8.60;;;5.88;;
27612;SDS011;15036;48.094;-1.690;2023-07-20T06:52:54;8.07;;;6.00;;
27612;SDS011;15036;48.094;-1.690;2023-07-20T06:55:19;8.27;;;5.32;;
27612;SDS011;15036;48.094;-1.690;2023-07-20T06:57:44;7.97;;;4.90;;
27612;SDS011;15036;48.094;-1.690;2023-07-20T07:00:10;9.27;;;4.73;;
27612;SDS011;15036;48.094;-1.690;2023-07-20T07:02:36;10.18;;;4.70;;
27612;SDS011;15036;48.094;-1.690;2023-07-20T07:05:02;7.23;;;4.87;;
27612;SDS011;15036;48.094;-1.690;2023-07-20T07:07:27;7.03;;;4.10;;
27612;SDS011;15036;48.094;-1.690;2023-07-20T07:09:52;7.38;;;4.07;;
27612;SDS011;15036;48.094;-1.690;2023-07-20T07:12:18;7.60;;;4.20;;
27612;SDS011;15036;48.094;-1.690;2023-07-20T07:14:43;7.80;;;4.00;;
27612;SDS011;15036;48.094;-1.690;2023-07-20T07:17:08;7.50;;;4.03;;
27612;SDS011;15036;48.094;-1.690;2023-07-20T07:19:34;7.80;;;3.80;;
27612;SDS011;15036;48.094;-1.690;2023-07-20T07:22:00;6.15;;;3.60;;
27612;SDS011;15036;48.094;-1.690;2023-07-20T07:24:26;7.00;;;3.90;;
27612;SDS011;15036;48.094;-1.690;2023-07-20T07:26:52;5.88;;;3.30;;
27612;SDS011;15036;48.094;-1.690;2023-07-20T07:29:18;7.20;;;4.10;;
27612;SDS011;15036;48.094;-1.690;2023-07-20T07:31:43;7.47;;;3.83;;
27612;SDS011;15036;48.094;-1.690;2023-07-20T07:34:08;7.27;;;3.70;;
27612;SDS011;15036;48.094;-1.690;2023-07-20T07:36:34;8.10;;;4.40;;
27612;SDS011;15036;48.094;-1.690;2023-07-20T07:38:59;5.67;;;3.60;;
27612;SDS011;15036;48.094;-1.690;2023-07-20T07:41:25;6.17;;;3.40;;
27612;SDS011;15036;48.094;-1.690;2023-07-20T07:43:50;5.82;;;3.40;;
27612;SDS011;15036;48.094;-1.690;2023-07-20T07:46:16;5.57;;;3.23;;
27612;SDS011;15036;48.094;-1.690;2023-07-20T07:48:42;5.30;;;3.20;;
27612;SDS011;15036;48.094;-1.690;2023-07-20T07:51:07;6.37;;;3.17;;
27612;SDS011;15036;48.094;-1.690;2023-07-20T07:53:32;5.63;;;3.17;;
27612;SDS011;15036;48.094;-1.690;2023-07-20T07:55:58;8.43;;;4.00;;
27612;SDS011;15036;48.094;-1.690;2023-07-20T07:58:23;5.97;;;3.70;;
27612;SDS011;15036;48.094;-1.690;2023-07-20T08:00:49;5.30;;;3.08;;
27612;SDS011;15036;48.094;-1.690;2023-07-20T08:03:15;5.93;;;3.43;;
27612;SDS011;15036;48.094;-1.690;2023-07-20T08:05:40;6.28;;;3.70;;
27612;SDS011;15036;48.094;-1.690;2023-07-20T08:08:07;7.30;;;3.80;;
27612;SDS011;15036;48.094;-1.690;2023-07-20T08:10:33;7.78;;;3.90;;
27612;SDS011;15036;48.094;-1.690;2023-07-20T08:12:59;6.80;;;3.42;;
27612;SDS011;15036;48.094;-1.690;2023-07-20T08:15:24;7.10;;;3.80;;
27612;SDS011;15036;48.094;-1.690;2023-07-20T08:17:50;7.13;;;3.20;;
27612;SDS011;15036;48.094;-1.690;2023-07-20T08:20:17;4.47;;;2.85;;
27612;SDS011;15036;48.094;-1.690;2023-07-20T08:22:43;6.53;;;3.35;;
27612;SDS011;15036;48.094;-1.690;2023-07-20T08:25:08;6.47;;;3.07;;
27612;SDS011;15036;48.094;-1.690;2023-07-20T08:27:34;5.90;;;3.07;;
27612;SDS011;15036;48.094;-1.690;2023-07-20T08:30:00;6.05;;;2.78;;
27612;SDS011;15036;48.094;-1.690;2023-07-20T08:32:26;6.00;;;2.90;;
27612;SDS011;15036;48.094;-1.690;2023-07-20T08:34:51;7.10;;;3.10;;
27612;SDS011;15036;48.094;-1.690;2023-07-20T08:37:17;5.13;;;2.90;;
27612;SDS011;15036;48.094;-1.690;2023-07-20T08:39:42;6.55;;;3.40;;
27612;SDS011;15036;48.094;-1.690;2023-07-20T08:42:08;4.00;;;2.47;;
27612;SDS011;15036;48.094;-1.690;2023-07-20T08:44:36;6.90;;;3.05;;
27612;SDS011;15036;48.094;-1.690;2023-07-20T08:47:03;5.28;;;2.63;;
27612;SDS011;15036;48.094;-1.690;2023-07-20T08:49:31;5.18;;;2.67;;
27612;SDS011;15036;48.094;-1.690;2023-07-20T08:51:57;4.38;;;2.50;;
27612;SDS011;15036;48.094;-1.690;2023-07-20T08:54:24;6.45;;;2.50;;
27612;SDS011;15036;48.094;-1.690;2023-07-20T08:56:52;5.13;;;2.60;;
27612;SDS011;15036;48.094;-1.690;2023-07-20T08:59:19;5.00;;;2.30;;
27612;SDS011;15036;48.094;-1.690;2023-07-20T09:01:48;4.28;;;1.90;;
27612;SDS011;15036;48.094;-1.690;2023-07-20T09:04:14;4.50;;;2.13;;
27612;SDS011;15036;48.094;-1.690;2023-07-20T09:06:41;5.05;;;2.40;;
27612;SDS011;15036;48.094;-1.690;2023-07-20T09:09:07;5.28;;;2.30;;
27612;SDS011;15036;48.094;-1.690;2023-07-20T09:11:32;5.40;;;2.37;;
27612;SDS011;15036;48.094;-1.690;2023-07-20T09:14:06;4.83;;;2.40;;
27612;SDS011;15036;48.094;-1.690;2023-07-20T09:16:45;5.63;;;2.50;;
27612;SDS011;15036;48.094;-1.690;2023-07-20T09:19:15;5.38;;;2.22;;
27612;SDS011;15036;48.094;-1.690;2023-07-20T09:21:43;3.50;;;2.10;;
27612;SDS011;15036;48.094;-1.690;2023-07-20T09:24:10;5.22;;;2.10;;
27612;SDS011;15036;48.094;-1.690;2023-07-20T09:26:40;4.65;;;2.20;;
27612;SDS011;15036;48.094;-1.690;2023-07-20T09:29:07;5.35;;;2.40;;
27612;SDS011;15036;48.094;-1.690;2023-07-20T09:31:34;5.10;;;2.20;;
27612;SDS011;15036;48.094;-1.690;2023-07-20T09:33:59;3.93;;;1.87;;
27612;SDS011;15036;48.094;-1.690;2023-07-20T09:36:26;3.30;;;1.80;;
27612;SDS011;15036;48.094;-1.690;2023-07-20T09:38:54;5.20;;;2.00;;
27612;SDS011;15036;48.094;-1.690;2023-07-20T09:41:21;3.43;;;1.77;;
27612;SDS011;15036;48.094;-1.690;2023-07-20T09:43:46;4.90;;;2.00;;
27612;SDS011;15036;48.094;-1.690;2023-07-20T09:46:12;5.30;;;2.30;;
27612;SDS011;15036;48.094;-1.690;2023-07-20T09:48:39;4.25;;;2.15;;
27612;SDS011;15036;48.094;-1.690;2023-07-20T09:51:05;4.17;;;1.97;;
27612;SDS011;15036;48.094;-1.690;2023-07-20T09:53:32;5.07;;;2.28;;
27612;SDS011;15036;48.094;-1.690;2023-07-20T09:55:59;4.57;;;1.90;;
27612;SDS011;15036;48.094;-1.690;2023-07-20T09:58:26;4.07;;;1.77;;
27612;SDS011;15036;48.094;-1.690;2023-07-20T10:00:52;4.53;;;1.90;;
27612;SDS011;15036;48.094;-1.690;2023-07-20T10:03:22;6.97;;;2.20;;
27612;SDS011;15036;48.094;-1.690;2023-07-20T10:05:57;4.25;;;2.15;;
27612;SDS011;15036;48.094;-1.690;2023-07-20T10:08:28;3.42;;;1.80;;
27612;SDS011;15036;48.094;-1.690;2023-07-20T10:10:55;3.80;;;1.80;;
27612;SDS011;15036;48.094;-1.690;2023-07-20T10:13:25;3.42;;;1.88;;
27612;SDS011;15036;48.094;-1.690;2023-07-20T10:15:58;3.20;;;1.85;;
27612;SDS011;15036;48.094;-1.690;2023-07-20T10:18:39;4.17;;;2.00;;
27612;SDS011;15036;48.094;-1.690;2023-07-20T10:21:11;4.65;;;1.90;;
27612;SDS011;15036;48.094;-1.690;2023-07-20T10:23:37;4.82;;;2.08;;
27612;SDS011;15036;48.094;-1.690;2023-07-20T10:26:03;4.20;;;2.00;;
27612;SDS011;15036;48.094;-1.690;2023-07-20T10:28:30;4.97;;;1.97;;
27612;SDS011;15036;48.094;-1.690;2023-07-20T10:30:57;5.10;;;2.05;;
27612;SDS011;15036;48.094;-1.690;2023-07-20T10:33:24;4.22;;;1.90;;
27612;SDS011;15036;48.094;-1.690;2023-07-20T10:36:01;4.53;;;1.87;;
27612;SDS011;15036;48.094;-1.690;2023-07-20T10:43:58;3.27;;;1.63;;
27612;SDS011;15036;48.094;-1.690;2023-07-20T10:46:34;3.92;;;1.77;;
27612;SDS011;15036;48.094;-1.690;2023-07-20T10:49:03;3.40;;;1.73;;
27612;SDS011;15036;48.094;-1.690;2023-07-20T10:51:30;3.80;;;1.60;;
27612;SDS011;15036;48.094;-1.690;2023-07-20T10:54:03;3.50;;;1.60;;
27612;SDS011;15036;48.094;-1.690;2023-07-20T10:56:28;3.40;;;1.70;;
27612;SDS011;15036;48.094;-1.690;2023-07-20T10:59:00;3.70;;;1.70;;
27612;SDS011;15036;48.094;-1.690;2023-07-20T11:01:44;5.07;;;1.63;;
27612;SDS011;15036;48.094;-1.690;2023-07-20T11:04:10;2.80;;;1.80;;
27612;SDS011;15036;48.094;-1.690;2023-07-20T11:06:35;4.20;;;1.53;;
27612;SDS011;15036;48.094;-1.690;2023-07-20T11:11:41;3.20;;;1.50;;
27612;SDS011;15036;48.094;-1.690;2023-07-20T11:14:09;4.85;;;1.80;;
27612;SDS011;15036;48.094;-1.690;2023-07-20T11:16:48;3.92;;;1.80;;
27612;SDS011;15036;48.094;-1.690;2023-07-20T11:21:43;3.53;;;1.70;;
27612;SDS011;15036;48.094;-1.690;2023-07-20T11:24:11;3.07;;;1.60;;
27612;SDS011;15036;48.094;-1.690;2023-07-20T11:29:19;2.70;;;1.50;;
27612;SDS011;15036;48.094;-1.690;2023-07-20T11:31:47;2.83;;;1.50;;
27612;SDS011;15036;48.094;-1.690;2023-07-20T11:34:15;4.47;;;1.90;;
27612;SDS011;15036;48.094;-1.690;2023-07-20T11:36:45;3.33;;;1.60;;
27612;SDS011;15036;48.094;-1.690;2023-07-20T11:39:15;4.22;;;1.77;;
27612;SDS011;15036;48.094;-1.690;2023-07-20T11:41:52;4.55;;;1.67;;
27612;SDS011;15036;48.094;-1.690;2023-07-20T11:44:20;3.83;;;1.52;;
27612;SDS011;15036;48.094;-1.690;2023-07-20T11:46:51;4.40;;;1.75;;
27612;SDS011;15036;48.094;-1.690;2023-07-20T11:49:24;3.65;;;1.80;;
27612;SDS011;15036;48.094;-1.690;2023-07-20T11:51:50;2.88;;;1.70;;
27612;SDS011;15036;48.094;-1.690;2023-07-20T11:54:15;5.83;;;1.90;;
27612;SDS011;15036;48.094;-1.690;2023-07-20T11:56:41;4.60;;;1.80;;
27612;SDS011;15036;48.094;-1.690;2023-07-20T11:59:07;5.40;;;1.60;;
27612;SDS011;15036;48.094;-1.690;2023-07-20T12:01:33;4.50;;;1.80;;
27612;SDS011;15036;48.094;-1.690;2023-07-20T12:04:00;3.15;;;1.50;;
27612;SDS011;15036;48.094;-1.690;2023-07-20T12:06:29;3.97;;;1.90;;
27612;SDS011;15036;48.094;-1.690;2023-07-20T12:08:56;3.85;;;1.52;;
27612;SDS011;15036;48.094;-1.690;2023-07-20T12:11:32;4.90;;;1.77;;
27612;SDS011;15036;48.094;-1.690;2023-07-20T12:13:57;3.45;;;1.60;;
27612;SDS011;15036;48.094;-1.690;2023-07-20T12:16:26;3.63;;;1.70;;
27612;SDS011;15036;48.094;-1.690;2023-07-20T12:18:58;4.05;;;1.92;;
27612;SDS011;15036;48.094;-1.690;2023-07-20T12:21:27;3.78;;;1.60;;
27612;SDS011;15036;48.094;-1.690;2023-07-20T12:23:53;4.57;;;1.57;;
27612;SDS011;15036;48.094;-1.690;2023-07-20T12:26:21;4.10;;;1.70;;
27612;SDS011;15036;48.094;-1.690;2023-07-20T12:28:48;4.60;;;1.60;;
27612;SDS011;15036;48.094;-1.690;2023-07-20T12:31:14;2.80;;;1.30;;
27612;SDS011;15036;48.094;-1.690;2023-07-20T12:33:39;3.13;;;1.70;;
27612;SDS011;15036;48.094;-1.690;2023-07-20T12:36:05;2.47;;;1.30;;
27612;SDS011;15036;48.094;-1.690;2023-07-20T12:38:31;2.83;;;1.20;;
27612;SDS011;15036;48.094;-1.690;2023-07-20T12:40:57;3.50;;;1.30;;
27612;SDS011;15036;48.094;-1.690;2023-07-20T12:43:23;3.10;;;1.40;;
27612;SDS011;15036;48.094;-1.690;2023-07-20T12:45:49;6.25;;;1.60;;
27612;SDS011;15036;48.094;-1.690;2023-07-20T12:48:14;3.97;;;1.40;;
27612;SDS011;15036;48.094;-1.690;2023-07-20T12:50:39;3.20;;;1.50;;
27612;SDS011;15036;48.094;-1.690;2023-07-20T12:53:05;3.57;;;1.40;;
27612;SDS011;15036;48.094;-1.690;2023-07-20T12:55:30;3.03;;;1.50;;
27612;SDS011;15036;48.094;-1.690;2023-07-20T12:57:56;4.32;;;1.48;;
27612;SDS011;15036;48.094;-1.690;2023-07-20T13:00:22;4.27;;;1.40;;
27612;SDS011;15036;48.094;-1.690;2023-07-20T13:02:48;3.13;;;1.40;;
27612;SDS011;15036;48.094;-1.690;2023-07-20T13:05:14;3.08;;;1.20;;
27612;SDS011;15036;48.094;-1.690;2023-07-20T13:07:40;2.27;;;1.37;;
27612;SDS011;15036;48.094;-1.690;2023-07-20T13:10:06;3.50;;;1.30;;
27612;SDS011;15036;48.094;-1.690;2023-07-20T13:12:33;2.58;;;1.20;;
27612;SDS011;15036;48.094;-1.690;2023-07-20T13:15:01;2.97;;;1.50;;
27612;SDS011;15036;48.094;-1.690;2023-07-20T13:17:30;2.75;;;1.20;;
27612;SDS011;15036;48.094;-1.690;2023-07-20T13:19:56;3.00;;;1.50;;
27612;SDS011;15036;48.094;-1.690;2023-07-20T13:22:21;3.73;;;1.60;;
27612;SDS011;15036;48.094;-1.690;2023-07-20T13:24:48;3.22;;;1.40;;
27612;SDS011;15036;48.094;-1.690;2023-07-20T13:27:15;3.83;;;1.45;;
27612;SDS011;15036;48.094;-1.690;2023-07-20T13:29:45;3.17;;;1.42;;
27612;SDS011;15036;48.094;-1.690;2023-07-20T13:32:14;2.78;;;1.23;;
27612;SDS011;15036;48.094;-1.690;2023-07-20T13:34:40;2.97;;;1.20;;
27612;SDS011;15036;48.094;-1.690;2023-07-20T13:37:05;3.40;;;1.43;;
27612;SDS011;15036;48.094;-1.690;2023-07-20T13:39:31;2.53;;;1.48;;
27612;SDS011;15036;48.094;-1.690;2023-07-20T13:41:56;3.70;;;1.50;;
27612;SDS011;15036;48.094;-1.690;2023-07-20T13:44:21;2.60;;;1.30;;
27612;SDS011;15036;48.094;-1.690;2023-07-20T13:46:47;3.53;;;1.40;;
27612;SDS011;15036;48.094;-1.690;2023-07-20T13:49:13;3.30;;;1.55;;
27612;SDS011;15036;48.094;-1.690;2023-07-20T13:51:39;3.30;;;1.45;;
27612;SDS011;15036;48.094;-1.690;2023-07-20T13:54:08;2.83;;;1.45;;
27612;SDS011;15036;48.094;-1.690;2023-07-20T13:56:34;2.20;;;1.30;;
27612;SDS011;15036;48.094;-1.690;2023-07-20T13:59:00;2.67;;;1.10;;
27612;SDS011;15036;48.094;-1.690;2023-07-20T14:01:26;3.50;;;1.40;;
27612;SDS011;15036;48.094;-1.690;2023-07-20T14:03:53;3.10;;;1.38;;
27612;SDS011;15036;48.094;-1.690;2023-07-20T14:06:18;2.83;;;1.33;;
27612;SDS011;15036;48.094;-1.690;2023-07-20T14:08:44;2.83;;;1.40;;
27612;SDS011;15036;48.094;-1.690;2023-07-20T14:11:13;3.97;;;1.90;;
27612;SDS011;15036;48.094;-1.690;2023-07-20T14:13:39;2.70;;;1.50;;
27612;SDS011;15036;48.094;-1.690;2023-07-20T14:16:06;3.25;;;1.50;;
27612;SDS011;15036;48.094;-1.690;2023-07-20T14:18:33;4.60;;;1.67;;
27612;SDS011;15036;48.094;-1.690;2023-07-20T14:20:58;4.03;;;1.60;;
27612;SDS011;15036;48.094;-1.690;2023-07-20T14:23:24;4.20;;;1.53;;
27612;SDS011;15036;48.094;-1.690;2023-07-20T14:25:49;3.67;;;1.43;;
27612;SDS011;15036;48.094;-1.690;2023-07-20T14:28:14;4.80;;;1.87;;
27612;SDS011;15036;48.094;-1.690;2023-07-20T14:30:41;4.15;;;1.70;;
27612;SDS011;15036;48.094;-1.690;2023-07-20T14:33:06;5.55;;;1.85;;
27612;SDS011;15036;48.094;-1.690;2023-07-20T14:35:32;3.33;;;1.43;;
27612;SDS011;15036;48.094;-1.690;2023-07-20T14:37:59;3.07;;;1.50;;
27612;SDS011;15036;48.094;-1.690;2023-07-20T14:40:24;4.60;;;1.77;;
27612;SDS011;15036;48.094;-1.690;2023-07-20T14:42:50;4.43;;;1.80;;
27612;SDS011;15036;48.094;-1.690;2023-07-20T14:45:15;3.30;;;1.63;;
27612;SDS011;15036;48.094;-1.690;2023-07-20T14:47:41;3.28;;;1.60;;
27612;SDS011;15036;48.094;-1.690;2023-07-20T14:50:08;4.28;;;1.60;;
27612;SDS011;15036;48.094;-1.690;2023-07-20T14:52:34;3.63;;;1.70;;